メインページ
METAR-TAF:

METAR-TAF

空港 :

ウィニペグ・ジェームス・アームストロング・リチャードソン国際空港

ウィニペグ, マニトバ州, カナダ

緯度: 49-54N, 経度: 097-14W, 海抜: 239m

現時点の気象観測

当レポートは58分前の12:00(UTC)に作成
西の風 8kt
気温 2°C
湿度 93%
気圧 1014 hPa
視程: 24.1km
高度6000ftの雲はほとんどない
高度23000ftの千切れ雲あり

METAR: CYWG 261200Z 26008KT 15SM FEW060 BKN230 02/01 A2995 RMK SC1CI4 SLP153

時間: 07:58 (12:58 UTC)

予報

当レポートは1時間18分前の11:40(UTC)に作成
予報は26日の 12時(UTC)から 27日の 12時(UTC)まで有効
西の風 8kt
視程: 10km
高度6000ftの雲はほとんどない
26日の 1600時(UTC)から
南西の風 10kt
視程: 10km
高度1200ftの雲は散在している
高度3000ftの千切れ雲あり
高度6000ftの曇り
26日の 16時(UTC)から 27日の 02時(UTC)まで一時的に
視程: 10km
高度1200ftの曇り
弱いにわか雨
26日の 21時(UTC)から 26日の 23時(UTC)まで徐々に
変向風 3kt
27日の 0400時(UTC)から
変向風 3kt
視程: 9.7km
高度600ftの雲は散在している
高度1200ftの曇り
小雨, 靄
27日の 04時(UTC)から 27日の 10時(UTC)まで一時的に
視程: 6.4km
高度600ftの曇り
弱いにわか雨, 靄
27日の 1000時(UTC)から
北/北西の風 10kt
視程: 6.4km
高度600ftの曇り
小雨, 靄

TAF: CYWG 261140Z 2612/2712 26008KT P6SM FEW060 FM261600 22010KT P6SM SCT012 BKN030 OVC060 TEMPO 2616/2702 P6SM -SHRA OVC012 BECMG 2621/2623 VRB03KT FM270400 VRB03KT 6SM -RA BR SCT006 OVC012 TEMPO 2704/2710 4SM -SHRA BR OVC006 FM271000 34010KT 4SM -RA BR OVC006 RMK NXT FCST BY 261800Z

4,000以上の空港の気象観測と天気予報(METAR報とTAF報)

利用可能な観測所は地図上に黄色い丸と赤い丸で示す。

丸の上にカーソルを重ねると観測所名を参照できる。

次にクリックすると気象観測と天気予報を参照できる。

マップの切り替え:黒色「×」印の緑ボタンをクリックして拡大、「-」印の緑ボタンをクリックして縮小、緑色の三角印をクリックして隣りの地図に切り替え


METAR-TAF: